Portada
METAR-TAF:

METAR-TAF

Aeroports :

Atirau, Kazakhstan

latitud: 47-07-19N, longitud: 051-49-17E, altitud: -22 m

Observació

L'informe es va fer fa 15 minuts, a les 07:30 UTC
Vent 16 kt del Nord
Temperatura 27°C
Humitat 34%
Pressió 1003 hPa
Visibilitat 10 km o més
sense núvols per sota de 1500 mi sense presència de cumulonimbus.

METAR: UATG 090730Z 36008MPS CAVOK 27/10 Q1003 R32/CLRD70 NOSIG RMK QFE754/1006

Hora: 13:45 (07:45 UTC)

Pronòstic

L'informe es va fer fa 2 hores i 44 minuts, a les 05:01 UTC
Pronòstic vàlid del 09 a les 06 UTC al 10 a les 06 UTC
Vent 14 kt del Nord/Nord-Oest amb ràfegues de 23 kt
Visibilitat 10 km o més
Núvols disperses a una alçada de 3300 ft, Cumulonimbus.
Temporalment
l' 09 a les 06 UTC al 09 a les 12 UTC
Visibilitat: 3100 m
torb alta de pols
Evolucionant progressivament
l' 09 a les 15 UTC al 09 a les 17 UTC
Vent 12 kt del Nord-Oest

TAF: UATG 090501Z 0906/1006 34007G12MPS 9999 SCT033CB TX29/0909Z TN18/1001Z TEMPO 0906/0912 3100 BLDU BECMG 0915/0917 31006MPS

Observacions i pronòstics meteorològics de més de 4000 aeroports (METAR i TAF).

Les estacions disponibles són els punts grocs i vermells al mapa.

Posi el ratolí al punt desitjat per veure el nom de l'estació.

Feu clic per veure les observacions i els pronòstics meteorològics.

Per canviar el mapa: feu clic els botons verds amb una creu de color negre per apropar; al botó verd amb un guió per allunyar la imatge; o en les fletxes verdes per a mapes adjacents.


METAR-TAF: